Time;durP1;ratioP1;P1;durP2;ratioP2;P2;SDS_P1;SDS_P2;PMS_P1;PMS_P2;Temp;Humidity;BMP_temperature;BMP_pressure;BME280_temperature;BME280_humidity;BME280_pressure;Samples;Min_cycle;Max_cycle;Signal;HPM_P1;HPM_P2
2021/06/17 00:01:45;;;;;;;2.60;1.13;;;18.50;69.30;;;;;;5091657;28;20100;-50
2021/06/17 00:04:13;;;;;;;4.90;0.82;;;18.60;69.50;;;;;;5094042;28;20028;-51
2021/06/17 00:06:40;;;;;;;6.05;0.93;;;18.70;70.20;;;;;;5096188;28;20478;-56
2021/06/17 00:09:09;;;;;;;1.10;0.85;;;18.80;66.90;;;;;;5095503;28;20028;-52
2021/06/17 00:11:36;;;;;;;3.78;0.80;;;18.90;65.90;;;;;;5095589;28;20081;-56
2021/06/17 00:14:04;;;;;;;1.35;0.65;;;18.90;70.30;;;;;;5095505;28;20102;-55
2021/06/17 00:16:32;;;;;;;1.38;0.90;;;19.00;69.40;;;;;;5095461;28;20040;-59
2021/06/17 00:19:02;;;;;;;2.13;1.08;;;19.10;65.40;;;;;;5094565;28;20031;-52
2021/06/17 00:21:29;;;;;;;3.30;1.70;;;19.20;66.40;;;;;;5095104;28;20485;-52
2021/06/17 00:23:57;;;;;;;1.45;0.70;;;19.30;65.40;;;;;;5095339;28;20032;-49
2021/06/17 00:26:24;;;;;;;2.90;1.10;;;19.40;67.40;;;;;;5095065;28;20414;-55
2021/06/17 00:28:51;;;;;;;6.82;0.85;;;19.40;66.30;;;;;;5095039;28;20500;-56
2021/06/17 00:31:19;;;;;;;0.70;0.43;;;19.50;66.10;;;;;;5093355;28;20024;-53
2021/06/17 00:33:46;;;;;;;3.45;0.80;;;19.60;66.80;;;;;;5095096;28;20480;-53
2021/06/17 00:36:14;;;;;;;1.50;0.80;;;19.60;66.10;;;;;;5093724;28;20077;-51
2021/06/17 00:38:41;;;;;;;1.20;0.70;;;19.70;67.10;;;;;;5094936;28;20446;-49
2021/06/17 00:41:08;;;;;;;1.85;0.70;;;19.90;64.70;;;;;;5094978;28;20118;-54
2021/06/17 00:43:35;;;;;;;0.98;0.60;;;19.90;61.50;;;;;;5095079;28;20031;-54
2021/06/17 00:46:04;;;;;;;3.53;0.75;;;20.00;65.70;;;;;;5095239;28;20485;-55
2021/06/17 00:48:32;;;;;;;3.30;0.80;;;20.00;64.20;;;;;;5095288;28;20447;-50
2021/06/17 00:51:01;;;;;;;3.30;1.15;;;20.10;61.30;;;;;;5095109;28;20470;-56
2021/06/17 00:53:34;;;;;;;2.78;0.95;;;20.10;64.80;;;;;;5094644;28;20055;-54
2021/06/17 00:56:02;;;;;;;5.53;0.80;;;20.20;62.90;;;;;;5095031;28;20382;-51
2021/06/17 00:58:31;;;;;;;1.40;0.63;;;20.20;61.60;;;;;;5094897;28;20443;-52
2021/06/17 01:00:59;;;;;;;2.92;0.73;;;20.20;63.40;;;;;;5094586;28;20039;-54
2021/06/17 01:03:26;;;;;;;4.40;0.88;;;20.30;64.90;;;;;;5094631;28;20020;-54
2021/06/17 01:05:54;;;;;;;1.98;0.85;;;20.40;61.50;;;;;;5094748;28;20498;-50
2021/06/17 01:08:24;;;;;;;1.70;0.70;;;20.60;64.10;;;;;;5094486;28;20067;-50
2021/06/17 01:11:14;;;;;;;2.72;0.80;;;20.70;61.70;;;;;;5094098;28;20031;-48
2021/06/17 01:13:58;;;;;;;1.13;0.60;;;20.80;63.10;;;;;;5094348;28;20032;-53
2021/06/17 01:16:51;;;;;;;6.88;0.80;;;20.90;62.50;;;;;;5093723;28;20036;-49
2021/06/17 01:19:33;;;;;;;4.53;1.00;;;21.10;62.60;;;;;;5094383;28;20031;-55
2021/06/17 01:22:38;;;;;;;2.17;0.80;;;21.30;61.90;;;;;;5094487;28;20505;-55
2021/06/17 01:25:08;;;;;;;2.33;0.52;;;21.20;60.20;;;;;;5079135;28;20040;-50
2021/06/17 01:27:38;;;;;;;1.90;0.95;;;21.20;60.50;;;;;;5094335;28;20044;-53
2021/06/17 01:30:12;;;;;;;2.10;0.73;;;21.20;61.00;;;;;;5094318;28;20165;-51
2021/06/17 01:32:42;;;;;;;0.98;0.50;;;21.20;57.40;;;;;;5094085;28;20046;-53
2021/06/17 01:35:11;;;;;;;1.80;0.47;;;21.40;61.20;;;;;;5093627;28;20016;-54
2021/06/17 01:37:41;;;;;;;1.70;0.70;;;21.40;61.80;;;;;;5094016;28;20016;-50
2021/06/17 01:40:10;;;;;;;1.27;0.82;;;21.40;61.60;;;;;;5094050;28;20039;-53
2021/06/17 01:42:41;;;;;;;1.27;0.70;;;21.40;61.50;;;;;;5094079;28;20028;-54
2021/06/17 01:45:09;;;;;;;12.38;1.08;;;21.30;59.20;;;;;;5093431;28;20063;-54
2021/06/17 01:47:37;;;;;;;42.20;3.45;;;21.30;59.50;;;;;;5093760;28;20032;-53
2021/06/17 01:50:06;;;;;;;1.73;0.50;;;21.30;60.20;;;;;;5093749;28;20024;-56
2021/06/17 01:52:34;;;;;;;2.50;0.52;;;21.20;59.20;;;;;;5093835;28;20035;-53
2021/06/17 01:55:03;;;;;;;5.38;0.70;;;21.20;60.40;;;;;;5093215;28;20016;-53
2021/06/17 01:57:34;;;;;;;1.85;0.60;;;21.20;60.10;;;;;;5093960;28;20070;-54
2021/06/17 02:00:03;;;;;;;5.55;0.60;;;21.30;60.60;;;;;;5093830;28;20056;-53
2021/06/17 02:02:32;;;;;;;3.00;0.88;;;21.30;57.90;;;;;;5091555;28;20031;-56
2021/06/17 02:05:00;;;;;;;1.70;0.60;;;21.30;59.80;;;;;;5083748;28;20029;-51
2021/06/17 02:07:28;;;;;;;2.42;0.50;;;21.30;58.20;;;;;;5091508;28;20455;-56
2021/06/17 02:09:56;;;;;;;0.98;0.50;;;21.40;57.50;;;;;;5088345;28;20024;-53
2021/06/17 02:12:23;;;;;;;1.17;0.60;;;21.50;58.80;;;;;;5091408;28;20024;-53
2021/06/17 02:14:51;;;;;;;1.05;0.63;;;21.50;60.50;;;;;;5090557;28;20035;-60
2021/06/17 02:17:21;;;;;;;2.20;0.65;;;21.60;55.80;;;;;;5089060;28;20024;-55
2021/06/17 02:19:51;;;;;;;4.18;0.55;;;21.60;59.60;;;;;;5091284;28;20435;-54
2021/06/17 02:22:21;;;;;;;5.35;0.73;;;21.70;56.70;;;;;;5091312;28;20107;-56
2021/06/17 02:24:57;;;;;;;2.05;0.68;;;21.80;55.80;;;;;;5090789;28;20031;-51
2021/06/17 02:27:32;;;;;;;4.68;0.65;;;21.80;58.90;;;;;;5088809;28;20044;-58
2021/06/17 02:30:08;;;;;;;0.90;0.38;;;21.80;57.00;;;;;;5091683;28;20024;-52
2021/06/17 02:32:49;;;;;;;2.03;0.60;;;21.80;59.70;;;;;;5091808;28;20038;-52
2021/06/17 02:35:21;;;;;;;8.25;0.73;;;21.70;59.70;;;;;;5086312;28;20110;-55
2021/06/17 02:37:51;;;;;;;;;;;21.80;57.80;;;;;;5089862;28;20103;-53
2021/06/17 02:40:19;;;;;;;2.95;0.80;;;21.70;57.00;;;;;;5091246;28;19904;-50
2021/06/17 02:42:48;;;;;;;3.33;0.70;;;21.70;58.70;;;;;;5090672;28;20032;-48
2021/06/17 02:45:16;;;;;;;2.97;0.52;;;21.70;56.20;;;;;;5085239;28;20111;-55
2021/06/17 02:47:43;;;;;;;0.93;0.50;;;22.00;54.90;;;;;;5090471;28;20131;-51
2021/06/17 02:50:11;;;;;;;1.60;0.55;;;21.90;57.50;;;;;;5091107;28;20051;-50
2021/06/17 02:52:42;;;;;;;4.22;1.90;;;21.80;55.60;;;;;;5090809;28;20429;-53
2021/06/17 02:55:10;;;;;;;1.40;0.32;;;22.00;55.20;;;;;;5085257;28;20032;-50
2021/06/17 02:57:50;;;;;;;2.20;0.50;;;22.00;58.80;;;;;;5087394;28;20123;-50
2021/06/17 03:00:19;;;;;;;2.95;0.60;;;22.20;54.00;;;;;;5090643;28;20024;-52
2021/06/17 03:03:13;;;;;;;5.88;0.95;;;22.30;57.40;;;;;;5090800;28;20111;-54
2021/06/17 03:05:44;;;;;;;3.30;0.80;;;22.30;53.20;;;;;;5085608;28;20035;-53
2021/06/17 03:08:27;;;;;;;4.75;0.60;;;22.30;57.80;;;;;;5089533;28;20075;-50
2021/06/17 03:10:59;;;;;;;1.02;0.68;;;22.40;55.90;;;;;;5088257;28;20035;-51
2021/06/17 03:13:32;;;;;;;1.20;0.70;;;22.40;55.20;;;;;;5089042;28;20043;-53
2021/06/17 03:16:00;;;;;;;0.98;0.47;;;22.50;55.90;;;;;;5084780;28;20024;-54
2021/06/17 03:18:32;;;;;;;1.02;0.32;;;22.60;57.10;;;;;;5089497;28;20027;-49
2021/06/17 03:21:02;;;;;;;2.33;0.60;;;22.60;53.60;;;;;;5088630;28;20382;-50
2021/06/17 03:23:32;;;;;;;1.65;0.32;;;22.70;54.30;;;;;;5088692;28;20024;-54
2021/06/17 03:26:04;;;;;;;4.35;1.00;;;22.80;54.50;;;;;;5092038;28;20087;-55
2021/06/17 03:28:32;;;;;;;0.65;0.28;;;22.80;52.50;;;;;;5092025;28;20032;-55
2021/06/17 03:31:01;;;;;;;2.65;0.70;;;22.70;54.40;;;;;;5082390;28;20024;-54
2021/06/17 03:33:33;;;;;;;2.42;0.40;;;22.70;56.60;;;;;;5090370;28;20462;-58
2021/06/17 03:36:01;;;;;;;1.95;0.52;;;22.80;53.20;;;;;;5090008;28;20020;-59
2021/06/17 03:38:30;;;;;;;1.58;0.90;;;22.70;56.80;;;;;;5089816;28;20440;-54
2021/06/17 03:40:59;;;;;;;3.15;1.05;;;22.70;56.20;;;;;;5086618;28;20088;-56
2021/06/17 03:43:27;;;;;;;9.10;2.97;;;22.80;52.00;;;;;;5089465;28;20102;-58
2021/06/17 03:45:56;;;;;;;14.68;5.22;;;22.80;55.20;;;;;;5089320;28;20055;-53
2021/06/17 03:48:24;;;;;;;16.58;7.50;;;22.80;53.70;;;;;;5090070;28;20483;-46
2021/06/17 03:50:53;;;;;;;19.25;9.75;;;22.80;55.30;;;;;;5085235;28;20650;-52
2021/06/17 03:53:21;;;;;;;14.57;6.78;;;22.80;54.40;;;;;;5089176;28;20055;-51
2021/06/17 03:55:52;;;;;;;15.85;8.82;;;22.80;53.20;;;;;;5087571;28;20103;-51
2021/06/17 03:58:23;;;;;;;18.58;9.55;;;22.80;51.90;;;;;;5089239;28;20498;-56
2021/06/17 04:00:51;;;;;;;17.35;8.80;;;22.80;54.90;;;;;;5084336;28;20078;-52
2021/06/17 04:03:20;;;;;;;14.15;8.82;;;22.60;53.00;;;;;;5089971;28;20115;-55
2021/06/17 04:05:49;;;;;;;14.15;8.60;;;22.40;55.50;;;;;;5088391;28;20020;-53
2021/06/17 04:08:18;;;;;;;12.90;8.60;;;22.20;54.50;;;;;;5089015;28;20032;-49
2021/06/17 04:10:46;;;;;;;15.65;10.20;;;22.00;56.40;;;;;;5089130;28;20115;-53
2021/06/17 04:13:14;;;;;;;14.65;8.70;;;21.90;58.70;;;;;;5091291;28;20339;-50
2021/06/17 04:15:44;;;;;;;15.82;8.90;;;21.90;58.80;;;;;;5090227;28;20020;-51
2021/06/17 04:18:13;;;;;;;17.40;8.18;;;21.90;56.90;;;;;;5090341;28;20043;-51
2021/06/17 04:20:45;;;;;;;14.75;8.60;;;21.90;56.50;;;;;;5091278;28;20117;-53
2021/06/17 04:23:15;;;;;;;;;;;21.90;58.60;;;;;;5091685;28;20039;-55
2021/06/17 04:25:44;;;;;;;16.92;7.75;;;21.90;57.00;;;;;;5091224;28;19915;-56
2021/06/17 04:28:12;;;;;;;14.57;8.00;;;21.90;55.70;;;;;;5091403;28;20043;-51
2021/06/17 04:30:42;;;;;;;13.50;8.07;;;21.80;55.50;;;;;;5091525;28;20024;-56
2021/06/17 04:33:13;;;;;;;18.73;9.68;;;21.80;56.10;;;;;;5091414;28;20036;-53
2021/06/17 04:35:42;;;;;;;12.10;7.05;;;21.90;57.40;;;;;;5091392;28;20020;-50
2021/06/17 04:38:14;;;;;;;13.52;8.35;;;22.00;56.10;;;;;;5091113;28;20120;-55
2021/06/17 04:40:45;;;;;;;11.30;7.53;;;22.00;56.00;;;;;;5091526;28;20024;-50
2021/06/17 04:43:14;;;;;;;16.42;7.90;;;22.00;56.70;;;;;;5090853;28;20036;-56
2021/06/17 04:45:44;;;;;;;12.82;7.57;;;21.90;55.90;;;;;;5090503;28;20401;-53
2021/06/17 04:48:12;;;;;;;13.60;7.30;;;21.90;58.30;;;;;;5091219;28;20054;-55
2021/06/17 04:50:40;;;;;;;13.45;8.30;;;21.80;58.30;;;;;;5092323;28;20370;-52
2021/06/17 04:53:10;;;;;;;14.68;7.80;;;21.70;58.10;;;;;;5094628;28;20028;-57
2021/06/17 04:55:44;;;;;;;10.77;6.43;;;21.60;58.40;;;;;;5094490;28;20466;-55
2021/06/17 04:58:11;;;;;;;13.35;6.50;;;21.60;57.60;;;;;;5093532;28;20036;-53
2021/06/17 05:00:39;;;;;;;12.18;7.25;;;21.50;57.40;;;;;;5094832;28;20027;-49
2021/06/17 05:03:06;;;;;;;9.80;6.65;;;21.50;58.80;;;;;;5094596;28;20034;-53
2021/06/17 05:05:34;;;;;;;11.60;6.05;;;21.40;58.00;;;;;;5094737;28;20028;-53
2021/06/17 05:10:58;;;;;;;10.05;6.25;;;21.00;59.00;;;;;;5094360;28;20479;-54
2021/06/17 05:13:28;;;;;;;11.95;6.45;;;20.90;60.30;;;;;;5094311;28;20562;-56
2021/06/17 05:15:58;;;;;;;11.93;7.28;;;20.70;59.00;;;;;;5094324;28;20024;-53
2021/06/17 05:18:27;;;;;;;10.80;6.22;;;20.50;61.20;;;;;;5094304;28;20030;-57
2021/06/17 05:20:56;;;;;;;9.65;4.45;;;20.30;61.50;;;;;;5094301;28;20509;-56
2021/06/17 05:23:25;;;;;;;11.60;5.93;;;20.10;58.60;;;;;;5093539;28;20359;-53
2021/06/17 05:25:55;;;;;;;9.43;5.65;;;19.90;61.50;;;;;;5094304;28;20088;-53
2021/06/17 05:28:25;;;;;;;9.10;5.75;;;19.80;62.40;;;;;;5094202;28;20471;-58
2021/06/17 05:30:58;;;;;;;10.38;5.32;;;19.60;62.30;;;;;;5093195;28;20024;-56
2021/06/17 05:33:26;;;;;;;8.20;4.93;;;19.40;64.80;;;;;;5094326;28;20028;-51
2021/06/17 05:35:57;;;;;;;6.35;4.88;;;19.40;62.40;;;;;;5094131;28;20489;-57
2021/06/17 05:38:25;;;;;;;9.13;5.05;;;19.20;62.70;;;;;;5093420;28;20028;-59
2021/06/17 05:40:53;;;;;;;9.52;4.75;;;19.10;64.10;;;;;;5093579;28;20027;-52
2021/06/17 05:43:22;;;;;;;12.07;5.65;;;19.00;62.80;;;;;;5093690;28;20102;-53
2021/06/17 05:45:49;;;;;;;12.18;5.30;;;18.90;64.30;;;;;;5093693;28;20020;-56
2021/06/17 05:48:17;;;;;;;9.25;6.30;;;18.90;66.40;;;;;;5093402;28;20036;-52
2021/06/17 05:50:44;;;;;;;11.10;5.50;;;18.70;68.10;;;;;;5093638;28;20105;-54
2021/06/17 05:53:12;;;;;;;9.07;5.05;;;18.70;67.90;;;;;;5092831;28;20024;-57
2021/06/17 05:55:39;;;;;;;10.07;4.65;;;18.60;67.10;;;;;;5093795;28;20474;-56
2021/06/17 05:58:06;;;;;;;12.63;6.25;;;18.50;68.20;;;;;;5092948;28;20462;-55
2021/06/17 06:00:34;;;;;;;7.72;4.22;;;18.50;65.80;;;;;;5093401;28;20042;-54
2021/06/17 06:03:01;;;;;;;9.40;4.95;;;18.40;66.80;;;;;;5091815;28;20069;-55
2021/06/17 06:05:29;;;;;;;7.72;4.57;;;18.40;67.00;;;;;;5093528;28;20090;-49
2021/06/17 06:08:08;;;;;;;6.90;4.20;;;18.30;69.10;;;;;;5092637;28;20051;-53
2021/06/17 06:10:36;;;;;;;8.27;4.57;;;18.30;68.10;;;;;;5094080;28;20400;-53
2021/06/17 06:13:03;;;;;;;8.88;5.65;;;18.30;67.70;;;;;;5093537;28;20108;-54
2021/06/17 06:15:34;;;;;;;11.25;5.82;;;18.20;68.40;;;;;;5093002;28;20099;-51
2021/06/17 06:18:05;;;;;;;10.85;5.57;;;18.20;69.70;;;;;;5094096;28;20024;-51
2021/06/17 06:20:33;;;;;;;13.65;8.65;;;18.10;68.30;;;;;;5092270;28;20043;-53
2021/06/17 06:23:01;;;;;;;13.27;10.10;;;18.10;69.50;;;;;;5093297;28;20024;-51
2021/06/17 06:25:29;;;;;;;15.05;9.05;;;18.10;69.70;;;;;;5093514;28;20040;-52
2021/06/17 06:27:57;;;;;;;17.40;11.60;;;18.00;69.50;;;;;;5092402;28;20040;-57
2021/06/17 06:30:24;;;;;;;12.90;10.10;;;18.00;71.10;;;;;;5092922;28;20501;-58
2021/06/17 06:32:52;;;;;;;10.80;9.70;;;18.00;70.40;;;;;;5092510;28;20052;-52
2021/06/17 06:35:19;;;;;;;14.68;10.45;;;18.00;70.80;;;;;;5093286;28;20034;-53
2021/06/17 06:37:50;;;;;;;14.57;10.48;;;18.00;71.30;;;;;;5093357;28;20024;-54
2021/06/17 06:40:25;;;;;;;16.08;10.10;;;18.00;72.00;;;;;;5093270;28;20016;-59
2021/06/17 06:42:53;;;;;;;12.75;11.35;;;17.90;71.70;;;;;;5092588;28;20039;-53
2021/06/17 06:45:20;;;;;;;14.80;12.32;;;17.90;71.90;;;;;;5091100;28;20016;-55
2021/06/17 06:47:48;;;;;;;15.43;12.73;;;17.90;72.10;;;;;;5091010;28;20416;-52
2021/06/17 06:50:16;;;;;;;15.18;11.35;;;17.90;71.90;;;;;;5090527;28;20466;-53
2021/06/17 06:52:43;;;;;;;16.98;10.85;;;17.90;72.00;;;;;;5090695;28;20032;-56
2021/06/17 06:55:11;;;;;;;15.20;11.77;;;17.90;72.30;;;;;;5090712;28;20111;-52
2021/06/17 06:57:40;;;;;;;16.50;12.77;;;17.80;71.60;;;;;;5091178;28;20036;-54
2021/06/17 07:00:10;;;;;;;15.30;12.70;;;17.70;72.50;;;;;;5093077;28;20023;-54
2021/06/17 07:02:37;;;;;;;15.75;12.30;;;17.80;73.20;;;;;;5093040;28;20024;-55
2021/06/17 07:05:06;;;;;;;17.23;15.35;;;17.70;73.60;;;;;;5093156;28;20032;-54
2021/06/17 07:07:33;;;;;;;19.00;14.95;;;17.70;73.80;;;;;;5092903;28;20433;-55
2021/06/17 07:10:01;;;;;;;18.25;16.38;;;17.70;73.60;;;;;;5092700;28;20053;-56
2021/06/17 07:12:28;;;;;;;16.52;12.77;;;17.70;74.10;;;;;;5089471;28;20104;-54
2021/06/17 07:14:58;;;;;;;16.00;12.63;;;17.70;72.50;;;;;;5091872;28;20074;-55
2021/06/17 07:17:26;;;;;;;17.17;10.02;;;17.70;74.40;;;;;;5092749;28;20024;-58
2021/06/17 07:19:57;;;;;;;14.25;11.75;;;17.60;74.10;;;;;;5092577;28;20103;-54
2021/06/17 07:22:25;;;;;;;13.60;11.20;;;17.60;72.10;;;;;;5090716;28;20024;-55
2021/06/17 07:24:54;;;;;;;17.45;10.63;;;17.60;75.00;;;;;;5091257;28;20036;-54
2021/06/17 07:27:22;;;;;;;28.60;12.35;;;17.60;75.40;;;;;;5089590;28;20055;-56
2021/06/17 07:29:52;;;;;;;18.63;10.23;;;17.60;77.00;;;;;;5088563;28;20024;-50
2021/06/17 07:32:20;;;;;;;25.88;12.07;;;17.60;76.60;;;;;;5088858;28;20024;-57
2021/06/17 07:34:47;;;;;;;14.38;10.90;;;17.60;74.80;;;;;;5090014;28;20026;-54
2021/06/17 07:37:16;;;;;;;11.50;10.40;;;17.60;75.40;;;;;;5089384;28;20020;-54
2021/06/17 07:39:44;;;;;;;13.18;9.85;;;17.60;75.10;;;;;;5091342;28;20103;-57
2021/06/17 07:42:11;;;;;;;16.90;9.93;;;17.60;75.50;;;;;;5092190;28;20027;-55
2021/06/17 07:44:39;;;;;;;11.70;9.10;;;17.50;75.80;;;;;;5091780;28;20374;-52
2021/06/17 07:47:07;;;;;;;10.60;8.10;;;17.50;75.20;;;;;;5091460;28;20100;-57
2021/06/17 07:49:34;;;;;;;14.55;6.93;;;17.50;75.20;;;;;;5091194;28;20034;-54
2021/06/17 07:52:02;;;;;;;10.20;8.00;;;17.50;75.20;;;;;;5090416;28;20036;-57
2021/06/17 07:54:29;;;;;;;11.05;6.95;;;17.50;75.30;;;;;;5091062;28;20103;-59
2021/06/17 07:56:57;;;;;;;9.93;7.53;;;17.50;76.20;;;;;;5090753;28;20184;-57
2021/06/17 07:59:26;;;;;;;9.98;6.80;;;17.50;75.90;;;;;;5089548;28;20028;-56
2021/06/17 08:01:54;;;;;;;9.77;8.00;;;17.50;75.70;;;;;;5091508;28;20047;-52
2021/06/17 08:04:24;;;;;;;9.77;6.95;;;17.50;76.10;;;;;;5091082;28;20095;-57
2021/06/17 08:06:51;;;;;;;12.98;7.38;;;17.40;76.20;;;;;;5091123;28;20047;-58
2021/06/17 08:09:19;;;;;;;8.55;6.50;;;17.40;76.20;;;;;;5089254;28;20036;-54
2021/06/17 08:11:47;;;;;;;6.38;5.75;;;17.40;76.40;;;;;;5090438;28;20030;-53
2021/06/17 08:14:25;;;;;;;9.55;6.65;;;17.40;76.30;;;;;;5090663;28;20028;-57
2021/06/17 08:16:54;;;;;;;9.45;5.97;;;17.40;76.20;;;;;;5090689;28;20061;-53
2021/06/17 08:19:28;;;;;;;9.27;6.85;;;17.40;76.30;;;;;;5090760;28;20024;-58
2021/06/17 08:21:59;;;;;;;9.32;6.15;;;17.40;76.40;;;;;;5090632;28;20164;-57
2021/06/17 08:24:27;;;;;;;9.30;5.35;;;17.40;77.50;;;;;;5090829;28;20024;-56
2021/06/17 08:26:55;;;;;;;6.35;5.32;;;17.40;77.50;;;;;;5093519;28;20052;-56
2021/06/17 08:29:22;;;;;;;11.27;6.03;;;17.40;77.90;;;;;;5094548;28;20091;-54
2021/06/17 08:31:50;;;;;;;9.90;5.35;;;17.40;77.70;;;;;;5094606;28;20081;-55
2021/06/17 08:34:17;;;;;;;11.65;4.88;;;17.40;67.20;;;;;;5094745;28;20024;-51
2021/06/17 08:36:45;;;;;;;11.60;3.85;;;17.40;66.50;;;;;;5093950;28;20028;-53
2021/06/17 08:39:15;;;;;;;6.15;2.25;;;17.40;66.00;;;;;;5093215;28;20387;-51
2021/06/17 08:41:42;;;;;;;6.63;3.53;;;17.30;59.20;;;;;;5094270;28;20390;-53
2021/06/17 08:44:10;;;;;;;9.20;4.88;;;17.20;70.50;;;;;;5093647;28;20024;-54
2021/06/17 08:46:39;;;;;;;6.97;2.00;;;17.20;74.20;;;;;;5087615;28;20125;-51
2021/06/17 08:49:08;;;;;;;12.88;4.07;;;17.00;61.70;;;;;;5093579;28;20039;-57
2021/06/17 08:51:40;;;;;;;9.25;2.45;;;16.90;74.40;;;;;;5093632;28;20119;-52
2021/06/17 08:54:09;;;;;;;7.55;4.18;;;16.70;67.60;;;;;;5093716;28;20024;-51
2021/06/17 08:56:37;;;;;;;9.45;2.78;;;16.80;78.10;;;;;;5090443;28;20032;-52
2021/06/17 08:59:07;;;;;;;12.25;4.10;;;16.70;68.10;;;;;;5093301;28;20035;-53
2021/06/17 09:01:35;;;;;;;15.48;7.20;;;16.80;79.90;;;;;;5093095;28;20023;-52
2021/06/17 09:04:24;;;;;;;8.15;2.60;;;16.80;70.60;;;;;;5093608;28;20020;-50
2021/06/17 09:07:13;;;;;;;8.82;2.78;;;16.70;67.30;;;;;;5087814;28;20050;-51
2021/06/17 09:09:50;;;;;;;11.07;3.47;;;16.60;60.90;;;;;;5092694;28;20020;-60
2021/06/17 09:12:22;;;;;;;15.48;3.50;;;16.80;76.60;;;;;;5093414;28;20028;-60
2021/06/17 09:14:57;;;;;;;11.45;3.92;;;16.80;78.80;;;;;;5092812;28;20040;-50
2021/06/17 09:17:24;;;;;;;11.88;3.50;;;16.90;79.70;;;;;;5086489;28;20099;-53
2021/06/17 09:19:56;;;;;;;8.80;3.10;;;16.80;69.50;;;;;;5093629;28;20032;-53
2021/06/17 09:22:26;;;;;;;11.93;4.68;;;16.80;77.20;;;;;;5092683;28;20027;-50
2021/06/17 09:24:56;;;;;;;16.30;3.67;;;16.90;76.70;;;;;;5093032;28;20036;-52
2021/06/17 09:27:31;;;;;;;9.23;3.70;;;16.80;66.30;;;;;;5086776;28;20047;-52
2021/06/17 09:30:11;;;;;;;7.28;3.85;;;16.80;67.20;;;;;;5092566;28;20111;-63
2021/06/17 09:33:00;;;;;;;10.70;3.80;;;16.70;72.00;;;;;;5091054;28;20039;-52
2021/06/17 09:35:30;;;;;;;11.55;2.47;;;16.80;72.50;;;;;;5092103;28;20051;-56
2021/06/17 09:38:05;;;;;;;19.40;3.60;;;16.90;66.90;;;;;;5086837;28;20032;-56
2021/06/17 09:40:35;;;;;;;24.83;4.97;;;16.80;67.10;;;;;;5092247;28;20394;-56
2021/06/17 09:43:14;;;;;;;31.30;4.97;;;16.80;77.20;;;;;;5090801;28;20040;-54
2021/06/17 09:45:53;;;;;;;26.17;4.78;;;16.80;73.50;;;;;;5085475;28;20391;-52
2021/06/17 09:48:42;;;;;;;25.25;4.30;;;16.60;72.10;;;;;;5091315;28;20119;-55
2021/06/17 09:51:24;;;;;;;10.13;2.97;;;16.70;75.90;;;;;;5088266;28;20028;-57
2021/06/17 09:53:52;;;;;;;;;;;16.60;76.90;;;;;;5092057;28;20042;-48
2021/06/17 09:56:32;;;;;;;9.75;2.85;;;16.60;68.10;;;;;;5092615;28;19910;-53
2021/06/17 09:59:00;;;;;;;10.70;3.05;;;16.70;74.70;;;;;;5093627;28;20081;-55
2021/06/17 10:01:37;;;;;;;15.02;4.47;;;16.80;72.30;;;;;;5094590;28;20027;-51
2021/06/17 10:04:12;;;;;;;18.48;3.88;;;16.80;69.10;;;;;;5094384;28;20032;-58
2021/06/17 10:06:44;;;;;;;12.75;3.63;;;16.80;69.10;;;;;;5093745;28;20038;-57
2021/06/17 10:09:13;;;;;;;15.23;4.25;;;16.80;75.10;;;;;;5093323;28;20063;-58
2021/06/17 10:11:42;;;;;;;16.73;5.13;;;16.90;72.10;;;;;;5092912;28;20058;-56
2021/06/17 10:14:10;;;;;;;19.15;4.05;;;16.90;78.00;;;;;;5092647;28;20210;-55
2021/06/17 10:16:39;;;;;;;14.70;3.70;;;16.80;78.70;;;;;;5094073;28;20052;-54
2021/06/17 10:19:07;;;;;;;11.18;3.80;;;16.80;71.40;;;;;;5093442;28;20028;-53
2021/06/17 10:21:35;;;;;;;25.25;8.52;;;16.90;74.10;;;;;;5093704;28;20083;-57
2021/06/17 10:24:04;;;;;;;14.82;3.63;;;16.80;70.90;;;;;;5093837;28;20515;-56
2021/06/17 10:26:45;;;;;;;17.17;3.22;;;16.90;81.20;;;;;;5093763;28;20052;-55
2021/06/17 10:29:28;;;;;;;16.17;4.32;;;16.80;80.90;;;;;;5093429;28;20443;-55
2021/06/17 10:31:59;;;;;;;29.52;4.15;;;16.70;75.70;;;;;;5093760;28;20016;-55
2021/06/17 10:34:28;;;;;;;22.95;3.70;;;16.80;82.70;;;;;;5093275;28;20032;-50
2021/06/17 10:37:15;;;;;;;19.95;4.00;;;16.90;84.50;;;;;;5092651;28;20541;-54
2021/06/17 10:39:47;;;;;;;18.05;4.60;;;17.00;85.00;;;;;;5089739;28;20497;-55
2021/06/17 10:42:32;;;;;;;16.02;4.13;;;17.00;84.10;;;;;;5092817;28;20081;-53
2021/06/17 10:45:06;;;;;;;11.48;3.83;;;16.90;82.90;;;;;;5091989;28;20106;-53
2021/06/17 10:50:15;;;;;;;20.13;4.90;;;17.00;83.50;;;;;;5085034;28;20111;-57
2021/06/17 10:52:43;;;;;;;22.98;6.82;;;16.90;83.10;;;;;;5089298;28;20016;-52
2021/06/17 10:55:16;;;;;;;33.25;16.85;;;16.90;84.10;;;;;;5089839;28;20149;-50
2021/06/17 10:57:44;;;;;;;83.50;51.58;;;16.90;84.40;;;;;;5091747;28;20356;-50
2021/06/17 11:00:24;;;;;;;111.45;74.78;;;16.90;84.20;;;;;;5091691;28;20028;-56
2021/06/17 11:03:18;;;;;;;110.72;74.75;;;16.80;83.50;;;;;;5087859;28;20032;-50
2021/06/17 11:05:49;;;;;;;113.63;75.07;;;16.80;82.80;;;;;;5088524;28;20039;-57
2021/06/17 11:08:28;;;;;;;110.38;69.20;;;16.80;82.90;;;;;;5091065;28;20165;-51
2021/06/17 11:11:08;;;;;;;95.40;64.47;;;16.80;82.80;;;;;;5087951;28;20096;-55
2021/06/17 11:13:42;;;;;;;92.00;63.92;;;16.80;82.60;;;;;;5091521;28;20024;-53
2021/06/17 11:16:18;;;;;;;96.65;61.75;;;16.70;82.50;;;;;;5087541;28;20020;-51
2021/06/17 11:18:51;;;;;;;86.28;60.67;;;16.70;82.10;;;;;;5091831;28;20028;-51
2021/06/17 11:21:27;;;;;;;96.50;58.05;;;16.70;82.10;;;;;;5090332;28;20467;-53
2021/06/17 11:24:02;;;;;;;88.90;60.40;;;16.70;81.90;;;;;;5088190;28;20036;-49
2021/06/17 11:26:41;;;;;;;87.85;57.13;;;16.60;81.90;;;;;;5085548;28;20127;-55
2021/06/17 11:29:10;;;;;;;88.72;57.20;;;16.60;81.60;;;;;;5091278;28;20036;-49
2021/06/17 11:31:43;;;;;;;86.57;54.67;;;16.60;81.20;;;;;;5090565;28;20028;-49
2021/06/17 11:34:12;;;;;;;77.18;55.03;;;16.50;81.20;;;;;;5091506;28;20104;-52
2021/06/17 11:36:51;;;;;;;72.38;51.35;;;16.50;80.90;;;;;;5085699;28;20021;-52
2021/06/17 11:39:28;;;;;;;73.88;52.33;;;16.50;81.00;;;;;;5090881;28;20474;-49
2021/06/17 11:41:58;;;;;;;79.57;54.20;;;16.50;81.00;;;;;;5087299;28;20059;-48
2021/06/17 11:44:27;;;;;;;79.47;52.30;;;16.50;81.00;;;;;;5088403;28;20031;-51
2021/06/17 11:47:10;;;;;;;79.35;51.78;;;16.40;80.40;;;;;;5086521;28;20024;-51
2021/06/17 11:49:40;;;;;;;71.90;49.28;;;16.40;80.60;;;;;;5090929;28;20059;-54
2021/06/17 11:52:19;;;;;;;78.60;52.08;;;16.40;80.70;;;;;;5089384;28;20478;-51
2021/06/17 11:54:49;;;;;;;73.63;49.58;;;16.40;80.60;;;;;;5087325;28;20040;-52
2021/06/17 11:57:25;;;;;;;76.55;49.15;;;16.40;80.60;;;;;;5090705;28;20479;-47
2021/06/17 11:59:53;;;;;;;82.43;51.67;;;16.30;80.30;;;;;;5087874;28;20032;-49
2021/06/17 12:02:24;;;;;;;75.85;49.38;;;16.30;80.20;;;;;;5094135;28;20137;-50
2021/06/17 12:05:09;;;;;;;69.10;46.63;;;16.30;80.10;;;;;;5087730;28;20040;-46
2021/06/17 12:07:38;;;;;;;71.20;49.28;;;16.30;80.20;;;;;;5092925;28;20063;-51
2021/06/17 12:10:18;;;;;;;66.47;46.83;;;16.30;80.20;;;;;;5094631;28;20047;-54
2021/06/17 12:12:52;;;;;;;67.78;46.45;;;16.20;80.10;;;;;;5093678;28;20027;-50
2021/06/17 12:15:26;;;;;;;68.10;45.15;;;16.30;80.00;;;;;;5089157;28;20039;-52
2021/06/17 12:17:55;;;;;;;76.03;46.30;;;16.20;79.80;;;;;;5094542;28;20024;-54
2021/06/17 12:20:34;;;;;;;62.40;44.67;;;16.20;79.80;;;;;;5094349;28;20020;-47
2021/06/17 12:23:04;;;;;;;66.63;42.53;;;16.20;79.70;;;;;;5092956;28;20386;-55
2021/06/17 12:25:43;;;;;;;61.17;42.60;;;16.20;79.50;;;;;;5085969;28;20046;-52
2021/06/17 12:28:12;;;;;;;64.05;42.28;;;16.20;79.90;;;;;;5093005;28;20070;-54
2021/06/17 12:30:48;;;;;;;60.38;41.22;;;16.20;79.40;;;;;;5094566;28;20016;-55
2021/06/17 12:33:20;;;;;;;60.30;41.97;;;16.20;79.30;;;;;;5092708;28;20032;-56
2021/06/17 12:35:48;;;;;;;56.25;40.72;;;16.20;79.40;;;;;;5088826;28;20035;-55
2021/06/17 12:38:39;;;;;;;54.10;38.72;;;16.20;78.80;;;;;;5093670;28;20032;-46
2021/06/17 12:41:17;;;;;;;57.63;40.13;;;16.20;79.00;;;;;;5092546;28;20032;-51
2021/06/17 12:43:46;;;;;;;53.97;38.40;;;16.10;79.00;;;;;;5092876;28;20024;-53
2021/06/17 12:46:15;;;;;;;56.92;37.75;;;16.20;79.10;;;;;;5095762;28;20028;-52
2021/06/17 12:49:09;;;;;;;53.42;38.03;;;16.10;79.30;;;;;;5095364;28;20386;-52
2021/06/17 12:52:02;;;;;;;53.22;34.95;;;16.10;79.00;;;;;;5095687;28;20099;-53
2021/06/17 12:54:41;;;;;;;55.03;34.90;;;16.10;78.50;;;;;;5094569;28;20055;-55
2021/06/17 12:57:11;;;;;;;50.67;36.85;;;16.10;78.80;;;;;;5087679;28;20067;-56
2021/06/17 13:00:03;;;;;;;52.55;35.97;;;16.00;79.00;;;;;;5095304;28;20474;-53
2021/06/17 13:02:33;;;;;;;51.80;36.28;;;16.00;79.10;;;;;;5094883;28;20074;-49
2021/06/17 13:05:06;;;;;;;45.85;33.10;;;16.00;79.20;;;;;;5094545;28;20111;-51